^^
Grace C. Lehan Memorial Weather Station Historical Data
Daily Summary for January 22, 2022 Units:  Both    English   Metric
Daily Weekly Monthly Yearly
  High: Low: Average:
Temperature: 28.4 °F /  -2 °C 8.7 °F /  -12.9 °C 18.5 °F /  -7.5 °C
Dew Point: 15 °F /  -9.4 °C 0.1 °F /  -17.7 °C 7.4 °F /  -13.7 °C
Humidity: 76% 53% 62%
Wind Speed: 4.4mph /  7.1km/h - 1.2mph /  1.9km/h
Wind Gust: 14mph /  22.5km/h - -
Wind- - WSW
Pressure: 30.54 in /  1034.1 hPa 30.11 in /  1019.5 hPa -
Precipitation: 0.00 in /  0 mm    
 
 
Tabular Data for January 22, 2022
Time Temperature Dew Point Pressure Wind Wind Speed Wind Gust Humidity Rainfall Rate (Hourly) solar
00:04 15 °F /  -9.4 °C 2.9 °F /  -16.2 °C 30.54in /  1034.1hPa NNW 1.9mph /  3.1km/h 9mph /  14.5km/h 58% 0.00in /  0mm 0 W/m2
00:09 15 °F /  -9.4 °C 2.9 °F /  -16.2 °C 30.54in /  1034.1hPa NNW 2.5mph /  4km/h 7mph /  11.3km/h 58% 0.00in /  0mm 0 W/m2
00:14 14.9 °F /  -9.5 °C 2.8 °F /  -16.2 °C 30.54in /  1034.1hPa NNW 1.8mph /  2.9km/h 7mph /  11.3km/h 58% 0.00in /  0mm 0 W/m2
00:19 14.9 °F /  -9.5 °C 2.5 °F /  -16.4 °C 30.54in /  1034.1hPa North 1.5mph /  2.4km/h 7mph /  11.3km/h 57.1% 0.00in /  0mm 0 W/m2
00:24 14.9 °F /  -9.5 °C 2.8 °F /  -16.2 °C 30.54in /  1034.1hPa NNW 1.2mph /  1.9km/h 10mph /  16.1km/h 58% 0.00in /  0mm 0 W/m2
00:29 14.8 °F /  -9.6 °C 2.7 °F /  -16.3 °C 30.53in /  1033.7hPa NNW 1.6mph /  2.6km/h 10mph /  16.1km/h 58% 0.00in /  0mm 0 W/m2
00:34 14.7 °F /  -9.6 °C 2.4 °F /  -16.4 °C 30.53in /  1033.7hPa NNW 1.9mph /  3.1km/h 10mph /  16.1km/h 57.3% 0.00in /  0mm 0 W/m2
00:39 14.6 °F /  -9.7 °C 2.1 °F /  -16.6 °C 30.52in /  1033.4hPa NNW 0.6mph /  1km/h 9mph /  14.5km/h 57% 0.00in /  0mm 0 W/m2
00:44 14.5 °F /  -9.7 °C 2 °F /  -16.7 °C 30.52in /  1033.4hPa NNW 2.3mph /  3.7km/h 10mph /  16.1km/h 57% 0.00in /  0mm 0 W/m2
00:49 14.3 °F /  -9.8 °C 1.9 °F /  -16.7 °C 30.52in /  1033.4hPa NNW 2.1mph /  3.4km/h 10mph /  16.1km/h 57% 0.00in /  0mm 0 W/m2
00:54 14.1 °F /  -9.9 °C 1.7 °F /  -16.8 °C 30.52in /  1033.4hPa NNW 0.3mph /  0.5km/h 10mph /  16.1km/h 57.1% 0.00in /  0mm 0 W/m2
00:59 13.9 °F /  -10.1 °C 1.8 °F /  -16.8 °C 30.52in /  1033.4hPa NNW 2.3mph /  3.7km/h 10mph /  16.1km/h 57.6% 0.00in /  0mm 0 W/m2
01:04 13.8 °F /  -10.1 °C 1.6 °F /  -16.9 °C 30.52in /  1033.4hPa NNW 1.7mph /  2.7km/h 10mph /  16.1km/h 57.7% 0.00in /  0mm 0 W/m2
01:09 13.6 °F /  -10.2 °C 1.4 °F /  -17 °C 30.52in /  1033.4hPa NNW 1.4mph /  2.3km/h 10mph /  16.1km/h 57.4% 0.00in /  0mm 0 W/m2
01:14 13.5 °F /  -10.3 °C 1.4 °F /  -17 °C 30.52in /  1033.4hPa North 1.2mph /  1.9km/h 10mph /  16.1km/h 57.8% 0.00in /  0mm 0 W/m2
01:19 13.4 °F /  -10.3 °C 1.4 °F /  -17 °C 30.52in /  1033.4hPa North 1.4mph /  2.3km/h 10mph /  16.1km/h 58.1% 0.00in /  0mm 0 W/m2
01:24 13.2 °F /  -10.4 °C 1.6 °F /  -16.9 °C 30.52in /  1033.4hPa North 1.4mph /  2.3km/h 10mph /  16.1km/h 59% 0.00in /  0mm 0 W/m2
01:29 13.1 °F /  -10.5 °C 1.5 °F /  -16.9 °C 30.52in /  1033.4hPa NNW 3.3mph /  5.3km/h 10mph /  16.1km/h 59% 0.00in /  0mm 0 W/m2
01:34 13 °F /  -10.6 °C 1.3 °F /  -17.1 °C 30.52in /  1033.4hPa NNW 2mph /  3.2km/h 10mph /  16.1km/h 59% 0.00in /  0mm 0 W/m2
01:39 12.8 °F /  -10.7 °C 1.3 °F /  -17.1 °C 30.51in /  1033.1hPa NW 2mph /  3.2km/h 10mph /  16.1km/h 59.2% 0.00in /  0mm 0 W/m2
01:44 12.6 °F /  -10.8 °C 1.4 °F /  -17 °C 30.51in /  1033.1hPa NNW 3.4mph /  5.5km/h 10mph /  16.1km/h 60% 0.00in /  0mm 0 W/m2
01:49 12.5 °F /  -10.8 °C 1.2 °F /  -17.1 °C 30.52in /  1033.4hPa NNW 1.7mph /  2.7km/h 10mph /  16.1km/h 60% 0.00in /  0mm 0 W/m2
01:54 12.3 °F /  -10.9 °C 1.1 °F /  -17.2 °C 30.51in /  1033.1hPa NNW 3mph /  4.8km/h 10mph /  16.1km/h 60% 0.00in /  0mm 0 W/m2
01:59 12.2 °F /  -11 °C 0.9 °F /  -17.3 °C 30.51in /  1033.1hPa NNW 3.6mph /  5.8km/h 10mph /  16.1km/h 60% 0.00in /  0mm 0 W/m2
02:04 12 °F /  -11.1 °C 1 °F /  -17.2 °C 30.51in /  1033.1hPa NNW 2.5mph /  4km/h 10mph /  16.1km/h 60.5% 0.00in /  0mm 0 W/m2
02:09 11.9 °F /  -11.2 °C 1.1 °F /  -17.2 °C 30.51in /  1033.1hPa NW 2.2mph /  3.5km/h 7mph /  11.3km/h 61% 0.00in /  0mm 0 W/m2
02:14 11.8 °F /  -11.2 °C 1 °F /  -17.2 °C 30.50in /  1032.7hPa NNW 4.4mph /  7.1km/h 10mph /  16.1km/h 61% 0.00in /  0mm 0 W/m2
02:19 11.7 °F /  -11.3 °C 0.8 °F /  -17.3 °C 30.50in /  1032.7hPa NNW 2.5mph /  4km/h 10mph /  16.1km/h 61% 0.00in /  0mm 0 W/m2
02:24 11.6 °F /  -11.3 °C 1.1 °F /  -17.2 °C 30.50in /  1032.7hPa NNW 1.6mph /  2.6km/h 10mph /  16.1km/h 62% 0.00in /  0mm 0 W/m2
02:29 11.4 °F /  -11.4 °C 1 °F /  -17.2 °C 30.50in /  1032.7hPa NNW 3.3mph /  5.3km/h 10mph /  16.1km/h 62% 0.00in /  0mm 0 W/m2
02:34 11.3 °F /  -11.5 °C 1.2 °F /  -17.1 °C 30.50in /  1032.7hPa NNW 2.8mph /  4.5km/h 10mph /  16.1km/h 62.9% 0.00in /  0mm 0 W/m2
02:39 11.2 °F /  -11.6 °C 0.9 °F /  -17.3 °C 30.50in /  1032.7hPa NNW 2.9mph /  4.7km/h 8mph /  12.9km/h 62.5% 0.00in /  0mm 0 W/m2
02:44 11.1 °F /  -11.6 °C 1 °F /  -17.2 °C 30.50in /  1032.7hPa NNW 1.6mph /  2.6km/h 8mph /  12.9km/h 63% 0.00in /  0mm 0 W/m2
02:49 11 °F /  -11.7 °C 0.9 °F /  -17.3 °C 30.49in /  1032.4hPa NNW 2.7mph /  4.3km/h 8mph /  12.9km/h 63% 0.00in /  0mm 0 W/m2
02:54 11 °F /  -11.7 °C 0.8 °F /  -17.3 °C 30.49in /  1032.4hPa North 2.8mph /  4.5km/h 8mph /  12.9km/h 63% 0.00in /  0mm 0 W/m2
02:59 10.9 °F /  -11.7 °C 0.8 °F /  -17.3 °C 30.48in /  1032.1hPa North 1.2mph /  1.9km/h 8mph /  12.9km/h 63% 0.00in /  0mm 0 W/m2
03:04 10.8 °F /  -11.8 °C 0.7 °F /  -17.4 °C 30.48in /  1032.1hPa North 2.5mph /  4km/h 8mph /  12.9km/h 63% 0.00in /  0mm 0 W/m2
03:09 10.7 °F /  -11.8 °C 0.6 °F /  -17.4 °C 30.48in /  1032.1hPa North 1.2mph /  1.9km/h 5mph /  8km/h 63.1% 0.00in /  0mm 0 W/m2
03:14 10.7 °F /  -11.8 °C 0.9 °F /  -17.3 °C 30.48in /  1032.1hPa North 1.2mph /  1.9km/h 5mph /  8km/h 64% 0.00in /  0mm 0 W/m2
03:19 10.5 °F /  -11.9 °C 0.8 °F /  -17.3 °C 30.48in /  1032.1hPa NNW 1.3mph /  2.1km/h 6mph /  9.7km/h 64% 0.00in /  0mm 0 W/m2
03:24 10.5 °F /  -11.9 °C 0.8 °F /  -17.3 °C 30.48in /  1032.1hPa NNW 0.9mph /  1.4km/h 6mph /  9.7km/h 64% 0.00in /  0mm 0 W/m2
03:29 10.4 °F /  -12 °C 0.7 °F /  -17.4 °C 30.47in /  1031.7hPa NNW 3.3mph /  5.3km/h 7mph /  11.3km/h 64% 0.00in /  0mm 0 W/m2
03:34 10.4 °F /  -12 °C 0.6 °F /  -17.4 °C 30.47in /  1031.7hPa NNW 2.4mph /  3.9km/h 8mph /  12.9km/h 64% 0.00in /  0mm 0 W/m2
03:39 10.3 °F /  -12.1 °C 0.6 °F /  -17.4 °C 30.47in /  1031.7hPa NNW 1.8mph /  2.9km/h 9mph /  14.5km/h 64.2% 0.00in /  0mm 0 W/m2
03:44 10.3 °F /  -12.1 °C 0.7 °F /  -17.4 °C 30.47in /  1031.7hPa NNW 1.4mph /  2.3km/h 9mph /  14.5km/h 64.3% 0.00in /  0mm 0 W/m2
03:49 10.2 °F /  -12.1 °C 0.7 °F /  -17.4 °C 30.47in /  1031.7hPa NNW 1.4mph /  2.3km/h 9mph /  14.5km/h 64.7% 0.00in /  0mm 0 W/m2
03:54 10.2 °F /  -12.1 °C 0.7 °F /  -17.4 °C 30.47in /  1031.7hPa NNW 1.6mph /  2.6km/h 9mph /  14.5km/h 64.8% 0.00in /  0mm 0 W/m2
03:59 10.1 °F /  -12.2 °C 0.7 °F /  -17.4 °C 30.47in /  1031.7hPa NNW 2.6mph /  4.2km/h 9mph /  14.5km/h 64.9% 0.00in /  0mm 0 W/m2
04:00 10.1 °F /  -12.2 °C 0.4 °F /  -17.6 °C 30.47in /  1031.7hPa Calm   9mph /  14.5km/h 64% 0.00in /  0mm 0 W/m2
04:09 10 °F /  -12.2 °C 0.6 °F /  -17.4 °C 30.46in /  1031.4hPa NNW 1.3mph /  2.1km/h 6mph /  9.7km/h 65% 0.00in /  0mm 0 W/m2
04:14 10 °F /  -12.2 °C 0.6 °F /  -17.4 °C 30.46in /  1031.4hPa NNW 2.4mph /  3.9km/h 9mph /  14.5km/h 65% 0.00in /  0mm 0 W/m2
04:19 10 °F /  -12.2 °C 0.6 °F /  -17.4 °C 30.47in /  1031.7hPa NNW 2.1mph /  3.4km/h 9mph /  14.5km/h 65% 0.00in /  0mm 0 W/m2
04:24 9.9 °F /  -12.3 °C 0.5 °F /  -17.5 °C 30.46in /  1031.4hPa North 1.6mph /  2.6km/h 9mph /  14.5km/h 65% 0.00in /  0mm 0 W/m2
04:29 9.9 °F /  -12.3 °C 0.5 °F /  -17.5 °C 30.46in /  1031.4hPa NNW 2.9mph /  4.7km/h 10mph /  16.1km/h 65% 0.00in /  0mm 0 W/m2
04:34 9.9 °F /  -12.3 °C 0.5 °F /  -17.5 °C 30.46in /  1031.4hPa North 1.4mph /  2.3km/h 10mph /  16.1km/h 65% 0.00in /  0mm 0 W/m2
04:39 9.9 °F /  -12.3 °C 0.5 °F /  -17.5 °C 30.46in /  1031.4hPa NNW 2.6mph /  4.2km/h 6mph /  9.7km/h 65% 0.00in /  0mm 0 W/m2
04:44 9.8 °F /  -12.3 °C 0.4 °F /  -17.6 °C 30.46in /  1031.4hPa NNW 2mph /  3.2km/h 6mph /  9.7km/h 65% 0.00in /  0mm 0 W/m2
04:49 9.8 °F /  -12.3 °C 0.4 °F /  -17.6 °C 30.46in /  1031.4hPa NNW 0.6mph /  1km/h 6mph /  9.7km/h 65% 0.00in /  0mm 0 W/m2
04:54 9.8 °F /  -12.3 °C 0.4 °F /  -17.6 °C 30.45in /  1031hPa NNW 2.8mph /  4.5km/h 9mph /  14.5km/h 65% 0.00in /  0mm 0 W/m2
04:59 9.8 °F /  -12.3 °C 0.4 °F /  -17.6 °C 30.45in /  1031hPa North 1mph /  1.6km/h 9mph /  14.5km/h 65% 0.00in /  0mm 0 W/m2
05:04 9.7 °F /  -12.4 °C 0.3 °F /  -17.6 °C 30.45in /  1031hPa North 1.8mph /  2.9km/h 9mph /  14.5km/h 65% 0.00in /  0mm 0 W/m2
05:09 9.7 °F /  -12.4 °C 0.6 °F /  -17.4 °C 30.44in /  1030.7hPa NNW 1.5mph /  2.4km/h 6mph /  9.7km/h 66% 0.00in /  0mm 0 W/m2
05:14 9.6 °F /  -12.4 °C 0.5 °F /  -17.5 °C 30.44in /  1030.7hPa NNW 1.8mph /  2.9km/h 6mph /  9.7km/h 66% 0.00in /  0mm 0 W/m2
05:19 9.6 °F /  -12.4 °C 0.5 °F /  -17.5 °C 30.44in /  1030.7hPa NNW 2.8mph /  4.5km/h 10mph /  16.1km/h 66% 0.00in /  0mm 0 W/m2
05:24 9.5 °F /  -12.5 °C 0.5 °F /  -17.5 °C 30.44in /  1030.7hPa NNW 1.5mph /  2.4km/h 10mph /  16.1km/h 66% 0.00in /  0mm 0 W/m2
05:29 9.5 °F /  -12.5 °C 0.4 °F /  -17.6 °C 30.44in /  1030.7hPa NNW 1.8mph /  2.9km/h 10mph /  16.1km/h 66% 0.00in /  0mm 0 W/m2
05:34 9.4 °F /  -12.6 °C 0.4 °F /  -17.6 °C 30.44in /  1030.7hPa NNW 1.2mph /  1.9km/h 10mph /  16.1km/h 66% 0.00in /  0mm 0 W/m2
05:39 9.4 °F /  -12.6 °C 0.4 °F /  -17.6 °C 30.44in /  1030.7hPa NNW 2.3mph /  3.7km/h 7mph /  11.3km/h 66% 0.00in /  0mm 0 W/m2
05:44 9.3 °F /  -12.6 °C 0.3 °F /  -17.6 °C 30.44in /  1030.7hPa NNW 1.8mph /  2.9km/h 7mph /  11.3km/h 66.1% 0.00in /  0mm 0 W/m2
05:49 9.3 °F /  -12.6 °C 0.6 °F /  -17.4 °C 30.44in /  1030.7hPa NNW 1.6mph /  2.6km/h 7mph /  11.3km/h 67% 0.00in /  0mm 0 W/m2
05:54 9.2 °F /  -12.7 °C 0.5 °F /  -17.5 °C 30.44in /  1030.7hPa NNW 1.5mph /  2.4km/h 7mph /  11.3km/h 67% 0.00in /  0mm 0 W/m2
05:59 9.2 °F /  -12.7 °C 0.5 °F /  -17.5 °C 30.45in /  1031hPa NNW 1.1mph /  1.8km/h 7mph /  11.3km/h 67% 0.00in /  0mm 0 W/m2
06:04 9.2 °F /  -12.7 °C 0.5 °F /  -17.5 °C 30.45in /  1031hPa NNW 0.8mph /  1.3km/h 7mph /  11.3km/h 67% 0.00in /  0mm 0 W/m2
06:09 9.1 °F /  -12.7 °C 0.4 °F /  -17.6 °C 30.45in /  1031hPa NNW 0.6mph /  1km/h 5mph /  8km/h 67% 0.00in /  0mm 0 W/m2
06:14 9.1 °F /  -12.7 °C 0.4 °F /  -17.6 °C 30.45in /  1031hPa NNW 0.7mph /  1.1km/h 5mph /  8km/h 67% 0.00in /  0mm 0 W/m2
06:19 9.1 °F /  -12.7 °C 0.6 °F /  -17.4 °C 30.45in /  1031hPa NNW 0.2mph /  0.3km/h 5mph /  8km/h 67.6% 0.00in /  0mm 0 W/m2
06:24 9 °F /  -12.8 °C 0.4 °F /  -17.6 °C 30.45in /  1031hPa NNW 1.7mph /  2.7km/h 7mph /  11.3km/h 67.5% 0.00in /  0mm 0 W/m2
06:29 9 °F /  -12.8 °C 0.4 °F /  -17.6 °C 30.45in /  1031hPa NNW 2.5mph /  4km/h 9mph /  14.5km/h 67.4% 0.00in /  0mm 0 W/m2
06:34 8.9 °F /  -12.8 °C 0.3 °F /  -17.6 °C 30.45in /  1031hPa NNW 0.7mph /  1.1km/h 9mph /  14.5km/h 67.1% 0.00in /  0mm 0 W/m2
06:39 8.9 °F /  -12.8 °C 0.5 °F /  -17.5 °C 30.45in /  1031hPa NNW 1.9mph /  3.1km/h 6mph /  9.7km/h 67.8% 0.00in /  0mm 0 W/m2
06:44 8.9 °F /  -12.8 °C 0.5 °F /  -17.5 °C 30.45in /  1031hPa NW 2.8mph /  4.5km/h 6mph /  9.7km/h 68% 0.00in /  0mm 0 W/m2
06:49 8.9 °F /  -12.8 °C 0.4 °F /  -17.6 °C 30.45in /  1031hPa NNW 3.1mph /  5km/h 6mph /  9.7km/h 67.7% 0.00in /  0mm 0 W/m2
06:54 8.9 °F /  -12.8 °C 0.4 °F /  -17.6 °C 30.45in /  1031hPa NNW 0.4mph /  0.6km/h 6mph /  9.7km/h 67.7% 0.00in /  0mm 0 W/m2
06:59 8.9 °F /  -12.8 °C 0.4 °F /  -17.6 °C 30.45in /  1031hPa NNW 0.8mph /  1.3km/h 6mph /  9.7km/h 67.6% 0.00in /  0mm 0 W/m2
07:04 8.8 °F /  -12.9 °C 0.2 °F /  -17.7 °C 30.45in /  1031hPa NNW 1.3mph /  2.1km/h 6mph /  9.7km/h 67.3% 0.00in /  0mm 0 W/m2
07:09 8.8 °F /  -12.9 °C 0.4 °F /  -17.6 °C 30.45in /  1031hPa North 2.5mph /  4km/h 6mph /  9.7km/h 68% 0.00in /  0mm 0 W/m2
07:14 8.8 °F /  -12.9 °C 0.3 °F /  -17.6 °C 30.45in /  1031hPa NNW 3.4mph /  5.5km/h 10mph /  16.1km/h 67.6% 0.00in /  0mm 0 W/m2
07:19 8.7 °F /  -12.9 °C 0.1 °F /  -17.7 °C 30.45in /  1031hPa NNW 2.1mph /  3.4km/h 10mph /  16.1km/h 67.4% 0.00in /  0mm 5 W/m2
07:24 8.7 °F /  -12.9 °C 0.2 °F /  -17.7 °C 30.45in /  1031hPa NNW 4.1mph /  6.6km/h 10mph /  16.1km/h 67.5% 0.00in /  0mm 7 W/m2
07:29 8.7 °F /  -12.9 °C 0.1 °F /  -17.7 °C 30.45in /  1031hPa NNW 1.5mph /  2.4km/h 10mph /  16.1km/h 67.3% 0.00in /  0mm 9 W/m2
07:34 8.7 °F /  -12.9 °C 0.3 °F /  -17.6 °C 30.45in /  1031hPa NNW 0.4mph /  0.6km/h 10mph /  16.1km/h 68% 0.00in /  0mm 11 W/m2
07:39 8.7 °F /  -12.9 °C 0.3 °F /  -17.6 °C 30.46in /  1031.4hPa NNW 1.9mph /  3.1km/h 4mph /  6.4km/h 68% 0.00in /  0mm 12 W/m2
07:44 8.7 °F /  -12.9 °C 0.3 °F /  -17.6 °C 30.46in /  1031.4hPa NNW 3.1mph /  5km/h 7mph /  11.3km/h 68% 0.00in /  0mm 21 W/m2
07:49 8.8 °F /  -12.9 °C 0.4 °F /  -17.6 °C 30.46in /  1031.4hPa NNW 3.1mph /  5km/h 10mph /  16.1km/h 68% 0.00in /  0mm 49 W/m2
07:54 9 °F /  -12.8 °C 0.6 °F /  -17.4 °C 30.46in /  1031.4hPa NNW 2.1mph /  3.4km/h 10mph /  16.1km/h 68% 0.00in /  0mm 49 W/m2
07:59 9.4 °F /  -12.6 °C 0.9 °F /  -17.3 °C 30.46in /  1031.4hPa NNW 3.8mph /  6.1km/h 10mph /  16.1km/h 67.5% 0.00in /  0mm 49 W/m2
08:09 10.3 °F /  -12.1 °C 1.3 °F /  -17.1 °C 30.46in /  1031.4hPa NNW 1.9mph /  3.1km/h 10mph /  16.1km/h 66.2% 0.00in /  0mm 62 W/m2
08:14 10.8 °F /  -11.8 °C 1.5 °F /  -16.9 °C 30.46in /  1031.4hPa NNW 3mph /  4.8km/h 10mph /  16.1km/h 65.2% 0.00in /  0mm 69 W/m2
08:19 11.2 °F /  -11.6 °C 1.6 °F /  -16.9 °C 30.46in /  1031.4hPa North 3.2mph /  5.1km/h 10mph /  16.1km/h 64.5% 0.00in /  0mm 102 W/m2
08:24 11.6 °F /  -11.3 °C 1.8 °F /  -16.8 °C 30.46in /  1031.4hPa NNW 2.4mph /  3.9km/h 10mph /  16.1km/h 63.8% 0.00in /  0mm 144 W/m2
08:29 12 °F /  -11.1 °C 1.9 °F /  -16.7 °C 30.46in /  1031.4hPa NNW 4mph /  6.4km/h 14mph /  22.5km/h 63% 0.00in /  0mm 188 W/m2
08:34 12.6 °F /  -10.8 °C 2.2 °F /  -16.6 °C 30.46in /  1031.4hPa North 2.9mph /  4.7km/h 14mph /  22.5km/h 62.3% 0.00in /  0mm 199 W/m2
08:39 13.4 °F /  -10.3 °C 2.9 °F /  -16.2 °C 30.46in /  1031.4hPa North 1.2mph /  1.9km/h 7mph /  11.3km/h 62.2% 0.00in /  0mm 244 W/m2
08:44 14.2 °F /  -9.9 °C 3.2 °F /  -16 °C 30.45in /  1031hPa North 1.4mph /  2.3km/h 7mph /  11.3km/h 60.7% 0.00in /  0mm 265 W/m2
08:49 15 °F /  -9.4 °C 3.6 °F /  -15.8 °C 30.45in /  1031hPa North 1.7mph /  2.7km/h 7mph /  11.3km/h 59.9% 0.00in /  0mm 272 W/m2
08:54 15.7 °F /  -9.1 °C 3.9 °F /  -15.6 °C 30.45in /  1031hPa North 2.3mph /  3.7km/h 7mph /  11.3km/h 59% 0.00in /  0mm 287 W/m2
08:59 16.4 °F /  -8.7 °C 4.4 °F /  -15.3 °C 30.45in /  1031hPa North 0.6mph /  1km/h 7mph /  11.3km/h 58.3% 0.00in /  0mm 299 W/m2
09:04 17.1 °F /  -8.3 °C 4.9 °F /  -15.1 °C 30.44in /  1030.7hPa NNW 2.7mph /  4.3km/h 10mph /  16.1km/h 57.8% 0.00in /  0mm 306 W/m2
09:09 17.7 °F /  -7.9 °C 5 °F /  -15 °C 30.44in /  1030.7hPa NNW 1mph /  1.6km/h 10mph /  16.1km/h 56.9% 0.00in /  0mm 322 W/m2
09:14 18.1 °F /  -7.7 °C 5.1 °F /  -14.9 °C 30.43in /  1030.4hPa North 1.6mph /  2.6km/h 10mph /  16.1km/h 56.1% 0.00in /  0mm 325 W/m2
09:19 18.4 °F /  -7.6 °C 5.4 °F /  -14.8 °C 30.43in /  1030.4hPa NNW 1.6mph /  2.6km/h 10mph /  16.1km/h 56.1% 0.00in /  0mm 330 W/m2
09:24 18.6 °F /  -7.4 °C 5 °F /  -15 °C 30.43in /  1030.4hPa North 2.9mph /  4.7km/h 10mph /  16.1km/h 54.8% 0.00in /  0mm 329 W/m2
09:29 18.3 °F /  -7.6 °C 4.1 °F /  -15.5 °C 30.43in /  1030.4hPa NNE 1.7mph /  2.7km/h 10mph /  16.1km/h 53.2% 0.00in /  0mm 309 W/m2
09:34 18.1 °F /  -7.7 °C 4.8 °F /  -15.1 °C 30.44in /  1030.7hPa NNW 2.6mph /  4.2km/h 10mph /  16.1km/h 55.4% 0.00in /  0mm 272 W/m2
09:39 18.1 °F /  -7.7 °C 5 °F /  -15 °C 30.44in /  1030.7hPa North 2.2mph /  3.5km/h 8mph /  12.9km/h 55.8% 0.00in /  0mm 225 W/m2
09:44 18 °F /  -7.8 °C 4.8 °F /  -15.1 °C 30.43in /  1030.4hPa NE 1.1mph /  1.8km/h 8mph /  12.9km/h 55.7% 0.00in /  0mm 225 W/m2
09:49 17.8 °F /  -7.9 °C 4.7 °F /  -15.2 °C 30.43in /  1030.4hPa North 1.5mph /  2.4km/h 9mph /  14.5km/h 55.9% 0.00in /  0mm 309 W/m2
09:54 18 °F /  -7.8 °C 5.3 °F /  -14.8 °C 30.43in /  1030.4hPa NNE 1.5mph /  2.4km/h 9mph /  14.5km/h 56.9% 0.00in /  0mm 258 W/m2
09:59 18 °F /  -7.8 °C 4.9 °F /  -15.1 °C 30.42in /  1030hPa North 2.9mph /  4.7km/h 11mph /  17.7km/h 56% 0.00in /  0mm 181 W/m2
10:04 17.7 °F /  -7.9 °C 5.1 °F /  -14.9 °C 30.42in /  1030hPa NNW 4mph /  6.4km/h 14mph /  22.5km/h 57.1% 0.00in /  0mm 190 W/m2
10:09 17.5 °F /  -8.1 °C 5.1 °F /  -14.9 °C 30.42in /  1030hPa NNW 3.3mph /  5.3km/h 14mph /  22.5km/h 57.4% 0.00in /  0mm 220 W/m2
10:14 17.6 °F /  -8 °C 5.4 °F /  -14.8 °C 30.42in /  1030hPa NNW 3mph /  4.8km/h 14mph /  22.5km/h 58.2% 0.00in /  0mm 251 W/m2
10:19 17.8 °F /  -7.9 °C 6 °F /  -14.4 °C 30.42in /  1030hPa North 2.1mph /  3.4km/h 14mph /  22.5km/h 59% 0.00in /  0mm 311 W/m2
10:24 18.3 °F /  -7.6 °C 6.2 °F /  -14.3 °C 30.42in /  1030hPa NNW 3mph /  4.8km/h 14mph /  22.5km/h 58.5% 0.00in /  0mm 330 W/m2
10:29 18.7 °F /  -7.4 °C 6.6 °F /  -14.1 °C 30.42in /  1030hPa NNW 1.7mph /  2.7km/h 14mph /  22.5km/h 58.6% 0.00in /  0mm 475 W/m2
10:34 19.4 °F /  -7 °C 7.2 °F /  -13.8 °C 30.42in /  1030hPa NNW 2.8mph /  4.5km/h 14mph /  22.5km/h 58.7% 0.00in /  0mm 485 W/m2
10:39 20.4 °F /  -6.4 °C 8.5 °F /  -13.1 °C 30.42in /  1030hPa NNW 1.5mph /  2.4km/h 10mph /  16.1km/h 59.4% 0.00in /  0mm 448 W/m2
10:44 21.2 °F /  -6 °C 8.7 °F /  -12.9 °C 30.41in /  1029.7hPa North 2.6mph /  4.2km/h 10mph /  16.1km/h 57.9% 0.00in /  0mm 499 W/m2
10:49 21.9 °F /  -5.6 °C 8.8 °F /  -12.9 °C 30.41in /  1029.7hPa NE 1mph /  1.6km/h 10mph /  16.1km/h 56.5% 0.00in /  0mm 508 W/m2
10:54 22.2 °F /  -5.4 °C 8.6 °F /  -13 °C 30.41in /  1029.7hPa ENE 1.7mph /  2.7km/h 10mph /  16.1km/h 55.4% 0.00in /  0mm 515 W/m2
10:59 22.1 °F /  -5.5 °C 8.5 °F /  -13.1 °C 30.41in /  1029.7hPa North 1.3mph /  2.1km/h 10mph /  16.1km/h 55.3% 0.00in /  0mm 520 W/m2
11:04 22.4 °F /  -5.3 °C 9.1 °F /  -12.7 °C 30.40in /  1029.3hPa NNW 2.5mph /  4km/h 10mph /  16.1km/h 56.2% 0.00in /  0mm 445 W/m2
11:09 22.8 °F /  -5.1 °C 9.9 °F /  -12.3 °C 30.40in /  1029.3hPa NNW 1.9mph /  3.1km/h 7mph /  11.3km/h 57.2% 0.00in /  0mm 360 W/m2
11:14 23.2 °F /  -4.9 °C 9.8 °F /  -12.3 °C 30.40in /  1029.3hPa NE 2.7mph /  4.3km/h 7mph /  11.3km/h 56% 0.00in /  0mm 118 W/m2
11:19 23.1 °F /  -4.9 °C 8.8 °F /  -12.9 °C 30.39in /  1029hPa ENE 1mph /  1.6km/h 7mph /  11.3km/h 53.8% 0.00in /  0mm 113 W/m2
11:24 22.6 °F /  -5.2 °C 8.6 °F /  -13 °C 30.39in /  1029hPa NNE 1.7mph /  2.7km/h 7mph /  11.3km/h 54.1% 0.00in /  0mm 246 W/m2
11:29 22.6 °F /  -5.2 °C 9.4 °F /  -12.6 °C 30.39in /  1029hPa NNW 1.1mph /  1.8km/h 7mph /  11.3km/h 56.4% 0.00in /  0mm 246 W/m2
11:34 22.8 °F /  -5.1 °C 10 °F /  -12.2 °C 30.38in /  1028.7hPa North 0.9mph /  1.4km/h 7mph /  11.3km/h 57.3% 0.00in /  0mm 343 W/m2
11:39 23.1 °F /  -4.9 °C 10.1 °F /  -12.2 °C 30.38in /  1028.7hPa NNE 1mph /  1.6km/h 5mph /  8km/h 57% 0.00in /  0mm 531 W/m2
11:44 23.2 °F /  -4.9 °C 10.3 °F /  -12.1 °C 30.37in /  1028.3hPa NNW 1.6mph /  2.6km/h 9mph /  14.5km/h 57.1% 0.00in /  0mm 531 W/m2
11:49 23.5 °F /  -4.7 °C 10.8 °F /  -11.8 °C 30.37in /  1028.3hPa North 1.1mph /  1.8km/h 9mph /  14.5km/h 57.6% 0.00in /  0mm 306 W/m2
11:54 23.8 °F /  -4.6 °C 10.6 °F /  -11.9 °C 30.37in /  1028.3hPa North 1.2mph /  1.9km/h 9mph /  14.5km/h 56.5% 0.00in /  0mm 220 W/m2
11:59 23.8 °F /  -4.6 °C 10.4 °F /  -12 °C 30.36in /  1028hPa NE 0.9mph /  1.4km/h 9mph /  14.5km/h 56% 0.00in /  0mm 209 W/m2
12:09 23.8 °F /  -4.6 °C 10.8 °F /  -11.8 °C 30.35in /  1027.7hPa NE 1.5mph /  2.4km/h 6mph /  9.7km/h 56.9% 0.00in /  0mm 227 W/m2
12:14 23.9 °F /  -4.5 °C 10.6 °F /  -11.9 °C 30.35in /  1027.7hPa NE 0.7mph /  1.1km/h 6mph /  9.7km/h 56.2% 0.00in /  0mm 172 W/m2
12:19 24.2 °F /  -4.3 °C 11.2 °F /  -11.6 °C 30.35in /  1027.7hPa North 0.7mph /  1.1km/h 6mph /  9.7km/h 57.2% 0.00in /  0mm 118 W/m2
12:24 24.6 °F /  -4.1 °C 11.6 °F /  -11.3 °C 30.35in /  1027.7hPa NNW 0.9mph /  1.4km/h 6mph /  9.7km/h 57% 0.00in /  0mm 394 W/m2
12:29 25.1 °F /  -3.8 °C 11.6 °F /  -11.3 °C 30.34in /  1027.3hPa North 0.6mph /  1km/h 6mph /  9.7km/h 56% 0.00in /  0mm 385 W/m2
12:34 25.3 °F /  -3.7 °C 11.5 °F /  -11.4 °C 30.34in /  1027.3hPa NNW 1.7mph /  2.7km/h 8mph /  12.9km/h 55.2% 0.00in /  0mm 257 W/m2
12:39 25.3 °F /  -3.7 °C 11.3 °F /  -11.5 °C 30.33in /  1027hPa North 1.4mph /  2.3km/h 8mph /  12.9km/h 54.7% 0.00in /  0mm 160 W/m2
12:44 25.3 °F /  -3.7 °C 11.4 °F /  -11.4 °C 30.32in /  1026.6hPa North 0.8mph /  1.3km/h 8mph /  12.9km/h 55% 0.00in /  0mm 417 W/m2
12:49 25.3 °F /  -3.7 °C 11.6 °F /  -11.3 °C 30.32in /  1026.6hPa NE 1.5mph /  2.4km/h 8mph /  12.9km/h 55.6% 0.00in /  0mm 403 W/m2
12:54 25.1 °F /  -3.8 °C 11.3 °F /  -11.5 °C 30.30in /  1026hPa ENE 0.6mph /  1km/h 8mph /  12.9km/h 55.2% 0.00in /  0mm 127 W/m2
12:59 25.3 °F /  -3.7 °C 12.1 °F /  -11.1 °C 30.30in /  1026hPa NNE 1.2mph /  1.9km/h 8mph /  12.9km/h 56.8% 0.00in /  0mm 176 W/m2
13:04 25.3 °F /  -3.7 °C 11.6 °F /  -11.3 °C 30.30in /  1026hPa NNE 1mph /  1.6km/h 8mph /  12.9km/h 55.5% 0.00in /  0mm 176 W/m2
13:09 25.2 °F /  -3.8 °C 11.6 °F /  -11.3 °C 30.29in /  1025.6hPa NE 1.3mph /  2.1km/h 6mph /  9.7km/h 55.7% 0.00in /  0mm 47 W/m2
13:14 25 °F /  -3.9 °C 11.5 °F /  -11.4 °C 30.28in /  1025.3hPa ENE 0.5mph /  0.8km/h 6mph /  9.7km/h 55.9% 0.00in /  0mm 197 W/m2
13:19 25.2 °F /  -3.8 °C 12.4 °F /  -10.9 °C 30.28in /  1025.3hPa NE 0.5mph /  0.8km/h 6mph /  9.7km/h 57.5% 0.00in /  0mm 160 W/m2
13:24 25.7 °F /  -3.5 °C 12.4 °F /  -10.9 °C 30.28in /  1025.3hPa Calm   6mph /  9.7km/h 56.6% 0.00in /  0mm 316 W/m2
13:29 26.1 °F /  -3.3 °C 12.8 °F /  -10.7 °C 30.28in /  1025.3hPa NE 0.2mph /  0.3km/h 6mph /  9.7km/h 56.6% 0.00in /  0mm 403 W/m2
13:34 26.6 °F /  -3 °C 13.1 °F /  -10.5 °C 30.27in /  1024.9hPa NE 0.5mph /  0.8km/h 6mph /  9.7km/h 56.1% 0.00in /  0mm 216 W/m2
13:39 26.8 °F /  -2.9 °C 12.9 °F /  -10.6 °C 30.27in /  1024.9hPa NNE 0.9mph /  1.4km/h 4mph /  6.4km/h 55.2% 0.00in /  0mm 183 W/m2
13:44 26.8 °F /  -2.9 °C 12.7 °F /  -10.7 °C 30.26in /  1024.6hPa NNE 0.3mph /  0.5km/h 4mph /  6.4km/h 54.9% 0.00in /  0mm 220 W/m2
13:49 26.7 °F /  -2.9 °C 12.4 °F /  -10.9 °C 30.26in /  1024.6hPa Calm   4mph /  6.4km/h 54.3% 0.00in /  0mm 109 W/m2
13:54 26.7 °F /  -2.9 °C 12.7 °F /  -10.7 °C 30.26in /  1024.6hPa NNE 0.3mph /  0.5km/h 4mph /  6.4km/h 55% 0.00in /  0mm 359 W/m2
13:59 26.7 °F /  -2.9 °C 12.6 °F /  -10.8 °C 30.25in /  1024.3hPa Calm   4mph /  6.4km/h 54.8% 0.00in /  0mm 213 W/m2
14:04 26.9 °F /  -2.8 °C 13 °F /  -10.6 °C 30.25in /  1024.3hPa NE 0.5mph /  0.8km/h 4mph /  6.4km/h 55.2% 0.00in /  0mm 179 W/m2
14:09 27.1 °F /  -2.7 °C 13.1 °F /  -10.5 °C 30.25in /  1024.3hPa Calm   4mph /  6.4km/h 55.1% 0.00in /  0mm 199 W/m2
14:14 27.5 °F /  -2.5 °C 13.4 °F /  -10.3 °C 30.25in /  1024.3hPa NE 0.5mph /  0.8km/h 4mph /  6.4km/h 55% 0.00in /  0mm 243 W/m2
14:19 28 °F /  -2.2 °C 13.7 °F /  -10.2 °C 30.24in /  1023.9hPa NE 0.1mph /  0.2km/h 4mph /  6.4km/h 54.4% 0.00in /  0mm 281 W/m2
14:24 28.3 °F /  -2.1 °C 13.4 °F /  -10.3 °C 30.24in /  1023.9hPa NE 0.1mph /  0.2km/h 4mph /  6.4km/h 53% 0.00in /  0mm 179 W/m2
14:29 28.4 °F /  -2 °C 13.5 °F /  -10.3 °C 30.24in /  1023.9hPa NE 0.3mph /  0.5km/h 4mph /  6.4km/h 53.1% 0.00in /  0mm 246 W/m2
14:34 28.4 °F /  -2 °C 13.8 °F /  -10.1 °C 30.24in /  1023.9hPa NE 0.4mph /  0.6km/h 4mph /  6.4km/h 53.8% 0.00in /  0mm 236 W/m2
14:39 28.3 °F /  -2.1 °C 13.8 °F /  -10.1 °C 30.24in /  1023.9hPa NE 0.5mph /  0.8km/h 3mph /  4.8km/h 54% 0.00in /  0mm 70 W/m2
14:44 28.2 °F /  -2.1 °C 13.7 °F /  -10.2 °C 30.24in /  1023.9hPa NNE 0.6mph /  1km/h 3mph /  4.8km/h 54% 0.00in /  0mm 70 W/m2
14:49 28 °F /  -2.2 °C 13.5 °F /  -10.3 °C 30.24in /  1023.9hPa NNE 0.4mph /  0.6km/h 3mph /  4.8km/h 54% 0.00in /  0mm 128 W/m2
14:54 27.7 °F /  -2.4 °C 13.5 °F /  -10.3 °C 30.24in /  1023.9hPa Calm   3mph /  4.8km/h 54.7% 0.00in /  0mm 98 W/m2
14:59 27.5 °F /  -2.5 °C 13.5 °F /  -10.3 °C 30.24in /  1023.9hPa NNE 0.2mph /  0.3km/h 3mph /  4.8km/h 55% 0.00in /  0mm 39 W/m2
15:04 27.3 °F /  -2.6 °C 13.3 °F /  -10.4 °C 30.23in /  1023.6hPa Calm   3mph /  4.8km/h 55% 0.00in /  0mm 32 W/m2
15:09 27.2 °F /  -2.7 °C 13.5 °F /  -10.3 °C 30.24in /  1023.9hPa NNE 0.6mph /  1km/h 3mph /  4.8km/h 55.7% 0.00in /  0mm 32 W/m2
15:14 27.2 °F /  -2.7 °C 13.6 °F /  -10.2 °C 30.24in /  1023.9hPa Calm   3mph /  4.8km/h 56% 0.00in /  0mm 32 W/m2
15:19 27.2 °F /  -2.7 °C 13.8 °F /  -10.1 °C 30.23in /  1023.6hPa Calm   3mph /  4.8km/h 56.5% 0.00in /  0mm 30 W/m2
15:24 27.2 °F /  -2.7 °C 14 °F /  -10 °C 30.23in /  1023.6hPa Calm   3mph /  4.8km/h 57% 0.00in /  0mm 28 W/m2
15:29 27.2 °F /  -2.7 °C 13.9 °F /  -10.1 °C 30.23in /  1023.6hPa Calm   3mph /  4.8km/h 56.7% 0.00in /  0mm 28 W/m2
15:34 27.2 °F /  -2.7 °C 13.6 °F /  -10.2 °C 30.23in /  1023.6hPa Calm   3mph /  4.8km/h 56% 0.00in /  0mm 25 W/m2
15:39 27.2 °F /  -2.7 °C 13.6 °F /  -10.2 °C 30.23in /  1023.6hPa Calm     56% 0.00in /  0mm 23 W/m2
15:44 27.2 °F /  -2.7 °C 13.7 °F /  -10.2 °C 30.22in /  1023.2hPa Calm     56.2% 0.00in /  0mm 23 W/m2
15:49 27.1 °F /  -2.7 °C 13.9 °F /  -10.1 °C 30.22in /  1023.2hPa Calm     57% 0.00in /  0mm 23 W/m2
15:54 27.1 °F /  -2.7 °C 13.9 °F /  -10.1 °C 30.22in /  1023.2hPa Calm     57% 0.00in /  0mm 23 W/m2
15:59 27.1 °F /  -2.7 °C 13.9 °F /  -10.1 °C 30.22in /  1023.2hPa Calm     57% 0.00in /  0mm 26 W/m2
16:00 27.1 °F /  -2.7 °C 13.9 °F /  -10.1 °C 30.21in /  1022.9hPa Calm     57% 0.00in /  0mm 26 W/m2
16:09 27 °F /  -2.8 °C 13.8 °F /  -10.1 °C 30.21in /  1022.9hPa Calm     57% 0.00in /  0mm 25 W/m2
16:14 27 °F /  -2.8 °C 14 °F /  -10 °C 30.20in /  1022.6hPa Calm     57.5% 0.00in /  0mm 21 W/m2
16:19 26.9 °F /  -2.8 °C 14.1 °F /  -9.9 °C 30.20in /  1022.6hPa Calm     58% 0.00in /  0mm 18 W/m2
16:24 26.9 °F /  -2.8 °C 14.1 °F /  -9.9 °C 30.20in /  1022.6hPa Calm     58% 0.00in /  0mm 14 W/m2
16:29 26.8 °F /  -2.9 °C 14.3 °F /  -9.8 °C 30.19in /  1022.2hPa Calm     58.7% 0.00in /  0mm 12 W/m2
16:34 26.7 °F /  -2.9 °C 14.3 °F /  -9.8 °C 30.18in /  1021.9hPa Calm     59% 0.00in /  0mm 11 W/m2
16:39 26.6 °F /  -3 °C 14.2 °F /  -9.9 °C 30.18in /  1021.9hPa Calm     59% 0.00in /  0mm 11 W/m2
16:44 26.5 °F /  -3.1 °C 14.1 °F /  -9.9 °C 30.18in /  1021.9hPa Calm     59% 0.00in /  0mm 9 W/m2
16:49 26.4 °F /  -3.1 °C 14 °F /  -10 °C 30.18in /  1021.9hPa Calm     59% 0.00in /  0mm 5 W/m2
16:54 26.3 °F /  -3.2 °C 13.9 °F /  -10.1 °C 30.18in /  1021.9hPa Calm     59% 0.00in /  0mm 0 W/m2
16:59 26.2 °F /  -3.2 °C 14.2 °F /  -9.9 °C 30.18in /  1021.9hPa Calm     60% 0.00in /  0mm 0 W/m2
17:04 26.1 °F /  -3.3 °C 14.1 °F /  -9.9 °C 30.18in /  1021.9hPa Calm     60% 0.00in /  0mm 0 W/m2
17:09 25.9 °F /  -3.4 °C 14 °F /  -10 °C 30.17in /  1021.6hPa Calm     60% 0.00in /  0mm 0 W/m2
17:14 25.8 °F /  -3.4 °C 13.8 °F /  -10.1 °C 30.17in /  1021.6hPa Calm     60.1% 0.00in /  0mm 0 W/m2
17:19 25.7 °F /  -3.5 °C 14.1 °F /  -9.9 °C 30.17in /  1021.6hPa Calm     61% 0.00in /  0mm 0 W/m2
17:24 25.6 °F /  -3.6 °C 14 °F /  -10 °C 30.18in /  1021.9hPa Calm     61% 0.00in /  0mm 0 W/m2
17:29 25.6 °F /  -3.6 °C 14.2 °F /  -9.9 °C 30.18in /  1021.9hPa Calm     61.5% 0.00in /  0mm 0 W/m2
17:34 25.6 °F /  -3.6 °C 14.5 °F /  -9.7 °C 30.18in /  1021.9hPa Calm     62.3% 0.00in /  0mm 0 W/m2
17:39 25.6 °F /  -3.6 °C 14.8 °F /  -9.6 °C 30.17in /  1021.6hPa Calm     63% 0.00in /  0mm 0 W/m2
17:44 25.5 °F /  -3.6 °C 14.5 °F /  -9.7 °C 30.17in /  1021.6hPa Calm     62.7% 0.00in /  0mm 0 W/m2
17:49 25.3 °F /  -3.7 °C 14.2 °F /  -9.9 °C 30.17in /  1021.6hPa Calm     62.2% 0.00in /  0mm 0 W/m2
17:54 25.1 °F /  -3.8 °C 14.3 °F /  -9.8 °C 30.17in /  1021.6hPa Calm     62.8% 0.00in /  0mm 0 W/m2
17:59 25 °F /  -3.9 °C 14.2 °F /  -9.9 °C 30.17in /  1021.6hPa Calm     63% 0.00in /  0mm 0 W/m2
18:04 24.9 °F /  -3.9 °C 14.1 °F /  -9.9 °C 30.17in /  1021.6hPa Calm     63% 0.00in /  0mm 0 W/m2
18:09 24.9 °F /  -3.9 °C 14.1 °F /  -9.9 °C 30.17in /  1021.6hPa Calm     63% 0.00in /  0mm 0 W/m2
18:14 24.8 °F /  -4 °C 14.4 °F /  -9.8 °C 30.17in /  1021.6hPa Calm     64% 0.00in /  0mm 0 W/m2
18:19 24.7 °F /  -4.1 °C 14.5 °F /  -9.7 °C 30.16in /  1021.2hPa Calm     64.5% 0.00in /  0mm 0 W/m2
18:24 24.7 °F /  -4.1 °C 14.4 °F /  -9.8 °C 30.16in /  1021.2hPa Calm     64.4% 0.00in /  0mm 0 W/m2
18:29 24.5 °F /  -4.2 °C 14.1 °F /  -9.9 °C 30.16in /  1021.2hPa Calm     64% 0.00in /  0mm 0 W/m2
18:34 24.5 °F /  -4.2 °C 14.3 °F /  -9.8 °C 30.16in /  1021.2hPa Calm     64.7% 0.00in /  0mm 0 W/m2
18:39 24.4 °F /  -4.2 °C 14.3 °F /  -9.8 °C 30.15in /  1020.9hPa Calm     65% 0.00in /  0mm 0 W/m2
18:44 24.3 °F /  -4.3 °C 14.2 °F /  -9.9 °C 30.15in /  1020.9hPa Calm     65% 0.00in /  0mm 0 W/m2
18:49 24.2 °F /  -4.3 °C 14.2 °F /  -9.9 °C 30.15in /  1020.9hPa Calm     65% 0.00in /  0mm 0 W/m2
18:54 24.1 °F /  -4.4 °C 14.4 °F /  -9.8 °C 30.15in /  1020.9hPa Calm     66% 0.00in /  0mm 0 W/m2
18:59 24 °F /  -4.4 °C 14.5 °F /  -9.7 °C 30.15in /  1020.9hPa Calm     66.7% 0.00in /  0mm 0 W/m2
19:04 23.9 °F /  -4.5 °C 14.5 °F /  -9.7 °C 30.14in /  1020.5hPa Calm     67% 0.00in /  0mm 0 W/m2
19:09 23.7 °F /  -4.6 °C 14.4 °F /  -9.8 °C 30.14in /  1020.5hPa Calm     67% 0.00in /  0mm 0 W/m2
19:14 23.5 °F /  -4.7 °C 14.2 °F /  -9.9 °C 30.15in /  1020.9hPa Calm     67% 0.00in /  0mm 0 W/m2
19:19 23.3 °F /  -4.8 °C 14.2 °F /  -9.9 °C 30.15in /  1020.9hPa Calm     67.8% 0.00in /  0mm 0 W/m2
19:24 23 °F /  -5 °C 14.2 °F /  -9.9 °C 30.15in /  1020.9hPa Calm     68.5% 0.00in /  0mm 0 W/m2
19:29 22.7 °F /  -5.2 °C 14.2 °F /  -9.9 °C 30.14in /  1020.5hPa Calm     69.3% 0.00in /  0mm 0 W/m2
19:34 22.5 °F /  -5.3 °C 14.2 °F /  -9.9 °C 30.14in /  1020.5hPa Calm     70% 0.00in /  0mm 0 W/m2
19:39 22.3 °F /  -5.4 °C 14.1 °F /  -9.9 °C 30.14in /  1020.5hPa Calm     70.4% 0.00in /  0mm 0 W/m2
19:44 22.1 °F /  -5.5 °C 14.1 °F /  -9.9 °C 30.13in /  1020.2hPa Calm     71% 0.00in /  0mm 0 W/m2
19:49 22 °F /  -5.6 °C 14.2 °F /  -9.9 °C 30.12in /  1019.9hPa Calm     71.7% 0.00in /  0mm 0 W/m2
19:54 22 °F /  -5.6 °C 14.6 °F /  -9.7 °C 30.13in /  1020.2hPa Calm     72.9% 0.00in /  0mm 0 W/m2
19:59 22 °F /  -5.6 °C 14.7 °F /  -9.6 °C 30.14in /  1020.5hPa Calm     73% 0.00in /  0mm 0 W/m2
20:00 22 °F /  -5.6 °C 14.7 °F /  -9.6 °C 30.13in /  1020.2hPa Calm     73% 0.00in /  0mm 0 W/m2
20:09 21.9 °F /  -5.6 °C 14.6 °F /  -9.7 °C 30.13in /  1020.2hPa Calm     73% 0.00in /  0mm 0 W/m2
20:14 21.8 °F /  -5.7 °C 14.5 °F /  -9.7 °C 30.14in /  1020.5hPa Calm     73% 0.00in /  0mm 0 W/m2
20:19 21.7 °F /  -5.7 °C 14.5 °F /  -9.7 °C 30.13in /  1020.2hPa Calm     73.5% 0.00in /  0mm 0 W/m2
20:24 21.6 °F /  -5.8 °C 14.7 °F /  -9.6 °C 30.12in /  1019.9hPa Calm     74.4% 0.00in /  0mm 0 W/m2
20:29 21.5 °F /  -5.8 °C 14.9 °F /  -9.5 °C 30.12in /  1019.9hPa Calm     75% 0.00in /  0mm 0 W/m2
20:34 21.5 °F /  -5.8 °C 14.6 °F /  -9.7 °C 30.12in /  1019.9hPa Calm     74.3% 0.00in /  0mm 0 W/m2
20:39 21.4 °F /  -5.9 °C 14.4 °F /  -9.8 °C 30.12in /  1019.9hPa Calm     74.1% 0.00in /  0mm 0 W/m2
20:44 21.3 °F /  -5.9 °C 14.6 °F /  -9.7 °C 30.11in /  1019.5hPa Calm     75% 0.00in /  0mm 0 W/m2
20:49 21.3 °F /  -5.9 °C 14.6 °F /  -9.7 °C 30.11in /  1019.5hPa Calm     75% 0.00in /  0mm 0 W/m2
20:54 21.3 °F /  -5.9 °C 14.9 °F /  -9.5 °C 30.11in /  1019.5hPa Calm     75.9% 0.00in /  0mm 0 W/m2
20:59 21.3 °F /  -5.9 °C 14.9 °F /  -9.5 °C 30.11in /  1019.5hPa Calm     76% 0.00in /  0mm 0 W/m2
21:03 21.4 °F /  -5.9 °C 15 °F /  -9.4 °C 30.11in /  1019.5hPa Calm     76% 0.00in /  0mm 0 W/m2
Hartford County Weather
Compliments of Weather Underground - 2 mb